Time;durP1;ratioP1;P1;durP2;ratioP2;P2;SDS_P1;SDS_P2;PMS_P1;PMS_P2;Temp;Humidity;BMP_temperature;BMP_pressure;BME280_temperature;BME280_humidity;BME280_pressure;Samples;Min_cycle;Max_cycle;Signal;HPM_P1;HPM_P2
2021/10/13 00:00:15;;;;;;;4.88;1.90;;;;;;;;;;5051907;28;20045;-78
2021/10/13 00:02:41;;;;;;;4.63;2.00;;;;;;;;;;5053080;28;20049;-78
2021/10/13 00:05:10;;;;;;;5.80;2.30;;;;;;;;;;5053136;28;20048;-78
2021/10/13 00:07:37;;;;;;;5.75;2.00;;;;;;;;;;5053205;28;20060;-78
2021/10/13 00:10:05;;;;;;;5.63;2.10;;;;;;;;;;5053020;28;20051;-78
2021/10/13 00:12:33;;;;;;;5.22;1.85;;;;;;;;;;5052505;28;20114;-76
2021/10/13 00:15:02;;;;;;;5.80;1.75;;;;;;;;;;5051763;28;20048;-76
2021/10/13 00:17:28;;;;;;;5.80;2.10;;;;;;;;;;5051888;28;20090;-77
2021/10/13 00:19:55;;;;;;;4.53;1.85;;;;;;;;;;5051544;28;20041;-77
2021/10/13 00:22:22;;;;;;;5.55;1.85;;;;;;;;;;5052034;28;20053;-77
2021/10/13 00:24:49;;;;;;;4.93;2.40;;;;;;;;;;5051567;28;20118;-77
2021/10/13 00:27:15;;;;;;;5.00;2.10;;;;;;;;;;5052113;28;20041;-78
2021/10/13 00:29:42;;;;;;;6.10;2.50;;;;;;;;;;5053073;28;20403;-78
2021/10/13 00:32:10;;;;;;;5.68;2.40;;;;;;;;;;5055875;28;20554;-78
2021/10/13 00:34:37;;;;;;;6.18;2.72;;;;;;;;;;5059696;28;20044;-78
2021/10/13 00:37:04;;;;;;;7.13;3.10;;;;;;;;;;5061107;28;20045;-78
2021/10/13 00:39:31;;;;;;;6.72;2.95;;;;;;;;;;5059466;28;20049;-78
2021/10/13 00:41:58;;;;;;;11.23;5.70;;;;;;;;;;5057969;28;20569;-79
2021/10/13 00:44:24;;;;;;;12.45;5.63;;;;;;;;;;5056640;28;20458;-77
2021/10/13 00:46:51;;;;;;;8.07;3.53;;;;;;;;;;5055410;28;20045;-77
2021/10/13 00:49:19;;;;;;;7.22;3.25;;;;;;;;;;5056405;28;20098;-77
2021/10/13 00:51:46;;;;;;;7.25;3.45;;;;;;;;;;5056409;28;20075;-77
2021/10/13 00:54:13;;;;;;;7.82;3.15;;;;;;;;;;5056069;28;20045;-77
2021/10/13 00:56:40;;;;;;;8.85;3.80;;;;;;;;;;5067288;28;20049;-77
2021/10/13 00:59:07;;;;;;;10.63;3.85;;;;;;;;;;5075748;28;20094;-77
2021/10/13 01:01:39;;;;;;;7.78;3.58;;;;;;;;;;5075998;28;20400;-77
2021/10/13 01:04:21;;;;;;;7.32;3.83;;;;;;;;;;5075649;28;20048;-77
2021/10/13 01:07:00;;;;;;;9.70;4.80;;;;;;;;;;5075762;28;20052;-77
2021/10/13 01:09:30;;;;;;;9.23;4.10;;;;;;;;;;5076178;28;20299;-78
2021/10/13 01:12:08;;;;;;;9.45;4.68;;;;;;;;;;5075230;28;20049;-78
2021/10/13 01:14:45;;;;;;;7.40;3.88;;;;;;;;;;5075613;28;20040;-77
2021/10/13 01:17:23;;;;;;;7.88;4.13;;;;;;;;;;5075665;28;20055;-76
2021/10/13 01:19:59;;;;;;;9.07;5.30;;;;;;;;;;5075251;28;20086;-77
2021/10/13 01:23:02;;;;;;;8.05;4.60;;;;;;;;;;5075199;28;20044;-77
2021/10/13 01:25:54;;;;;;;9.27;4.95;;;;;;;;;;5075363;28;20195;-77
2021/10/13 01:28:25;;;;;;;10.40;4.82;;;;;;;;;;5074746;28;20075;-76
2021/10/13 01:30:59;;;;;;;9.60;4.45;;;;;;;;;;5075560;28;20090;-77
2021/10/13 01:33:50;;;;;;;10.73;4.68;;;;;;;;;;5074758;28;20481;-77
2021/10/13 01:36:20;;;;;;;;;;;;;;;;;;5073042;28;20458;-77
2021/10/13 01:38:49;;;;;;;8.65;4.45;;;;;;;;;;5075674;28;19920;-77
2021/10/13 01:41:18;;;;;;;12.02;6.07;;;;;;;;;;5075836;28;20044;-77
2021/10/13 01:43:50;;;;;;;18.58;10.02;;;;;;;;;;5076048;28;20044;-78
2021/10/13 01:46:19;;;;;;;12.68;6.38;;;;;;;;;;5076533;28;20112;-78
2021/10/13 01:48:46;;;;;;;10.65;5.60;;;;;;;;;;5076323;28;20102;-77
2021/10/13 01:51:14;;;;;;;11.85;5.57;;;;;;;;;;5076661;28;20049;-78
2021/10/13 01:53:43;;;;;;;8.65;4.93;;;;;;;;;;5076484;28;20041;-78
2021/10/13 01:56:13;;;;;;;10.75;5.70;;;;;;;;;;5076639;28;20045;-78
2021/10/13 01:58:42;;;;;;;10.15;4.93;;;;;;;;;;5076135;28;20044;-78
2021/10/13 02:01:11;;;;;;;10.27;5.00;;;;;;;;;;5075640;28;20048;-78
2021/10/13 02:03:40;;;;;;;9.40;4.90;;;;;;;;;;5075598;28;20056;-77
2021/10/13 02:06:08;;;;;;;11.50;5.15;;;;;;;;;;5075717;28;20054;-78
2021/10/13 02:08:37;;;;;;;12.70;6.35;;;;;;;;;;5075733;28;20056;-77
2021/10/13 02:11:06;;;;;;;10.63;5.40;;;;;;;;;;5075602;28;20044;-78
2021/10/13 02:13:36;;;;;;;11.57;5.88;;;;;;;;;;5075583;28;20102;-77
2021/10/13 02:16:04;;;;;;;11.15;5.25;;;;;;;;;;5075496;28;20067;-77
2021/10/13 02:18:33;;;;;;;9.52;5.32;;;;;;;;;;5074876;28;20094;-77
2021/10/13 02:21:01;;;;;;;11.18;5.60;;;;;;;;;;5075923;28;20044;-78
2021/10/13 02:23:33;;;;;;;9.70;5.75;;;;;;;;;;5075884;28;20400;-77
2021/10/13 02:26:05;;;;;;;10.50;5.00;;;;;;;;;;5075823;28;20067;-77
2021/10/13 02:28:36;;;;;;;11.20;4.82;;;;;;;;;;5075526;28;20048;-78
2021/10/13 02:31:03;;;;;;;14.70;7.22;;;;;;;;;;5076961;28;20052;-78
2021/10/13 02:33:32;;;;;;;12.27;6.53;;;;;;;;;;5078730;28;20048;-78
2021/10/13 02:35:59;;;;;;;9.75;5.03;;;;;;;;;;5077941;28;20049;-78
2021/10/13 02:38:26;;;;;;;15.48;7.70;;;;;;;;;;5075782;28;20049;-77
2021/10/13 02:40:52;;;;;;;13.38;7.03;;;;;;;;;;5074132;28;20052;-77
2021/10/13 02:43:19;;;;;;;10.18;5.25;;;;;;;;;;5075132;28;20048;-78
2021/10/13 02:45:52;;;;;;;11.60;5.43;;;;;;;;;;5074825;28;20564;-78
2021/10/13 02:48:25;;;;;;;13.65;6.47;;;;;;;;;;5074306;28;20526;-77
2021/10/13 02:50:59;;;;;;;14.73;6.90;;;;;;;;;;5074014;28;20056;-77
2021/10/13 02:53:34;;;;;;;12.02;5.25;;;;;;;;;;5073605;28;20049;-77
2021/10/13 02:56:08;;;;;;;10.13;5.35;;;;;;;;;;5073466;28;20454;-77
2021/10/13 02:58:40;;;;;;;10.30;5.00;;;;;;;;;;5073631;28;20452;-77
2021/10/13 03:01:11;;;;;;;10.45;5.22;;;;;;;;;;5073606;28;20407;-78
2021/10/13 03:03:46;;;;;;;10.10;4.88;;;;;;;;;;5073341;28;20098;-77
2021/10/13 03:06:15;;;;;;;8.57;4.53;;;;;;;;;;5073675;28;20052;-77
2021/10/13 03:08:43;;;;;;;10.48;5.13;;;;;;;;;;5072670;28;20495;-76
2021/10/13 03:11:12;;;;;;;10.38;5.70;;;;;;;;;;5073173;28;20052;-77
2021/10/13 03:13:43;;;;;;;11.68;5.53;;;;;;;;;;5072842;28;20048;-77
2021/10/13 03:16:10;;;;;;;13.35;6.20;;;;;;;;;;5073348;28;20045;-77
2021/10/13 03:18:39;;;;;;;12.90;5.68;;;;;;;;;;5073621;28;20109;-77
2021/10/13 03:21:08;;;;;;;11.98;5.53;;;;;;;;;;5073267;28;20053;-77
2021/10/13 03:23:36;;;;;;;10.50;4.82;;;;;;;;;;5073053;28;20044;-77
2021/10/13 03:26:06;;;;;;;9.40;5.30;;;;;;;;;;5072504;28;20052;-78
2021/10/13 03:28:33;;;;;;;10.25;5.47;;;;;;;;;;5072727;28;20052;-77
2021/10/13 03:31:00;;;;;;;11.00;5.68;;;;;;;;;;5072611;28;20510;-77
2021/10/13 03:33:27;;;;;;;10.43;5.22;;;;;;;;;;5073293;28;20044;-78
2021/10/13 03:35:55;;;;;;;11.50;5.70;;;;;;;;;;5072619;28;20056;-77
2021/10/13 03:38:22;;;;;;;10.60;5.07;;;;;;;;;;5072347;28;20408;-77
2021/10/13 03:40:50;;;;;;;9.15;5.00;;;;;;;;;;5072595;28;20052;-77
2021/10/13 03:43:17;;;;;;;11.48;5.15;;;;;;;;;;5072324;28;20431;-76
2021/10/13 03:45:44;;;;;;;11.00;5.60;;;;;;;;;;5075781;28;20098;-77
2021/10/13 03:48:11;;;;;;;8.43;4.90;;;;;;;;;;5076842;28;20511;-77
2021/10/13 03:50:39;;;;;;;12.95;6.63;;;;;;;;;;5077062;28;20389;-76
2021/10/13 03:53:05;;;;;;;18.05;8.10;;;;;;;;;;5077393;28;20106;-77
2021/10/13 03:55:32;;;;;;;14.93;7.75;;;;;;;;;;5074193;28;20102;-78
2021/10/13 03:58:00;;;;;;;16.35;6.30;;;;;;;;;;5057543;28;20705;-77
2021/10/13 04:00:27;;;;;;;12.07;6.60;;;;;;;;;;5055380;28;20470;-78
2021/10/13 04:02:54;;;;;;;11.95;6.40;;;;;;;;;;5053338;28;20049;-77
2021/10/13 04:05:21;;;;;;;11.35;6.03;;;;;;;;;;5052350;28;20056;-78
2021/10/13 04:07:48;;;;;;;12.07;5.90;;;;;;;;;;5052123;28;20049;-78
2021/10/13 04:10:16;;;;;;;11.45;6.47;;;;;;;;;;5052381;28;20041;-77
2021/10/13 04:12:43;;;;;;;16.70;6.60;;;;;;;;;;5052675;28;20044;-77
2021/10/13 04:15:12;;;;;;;13.10;6.40;;;;;;;;;;5052196;28;20081;-77
2021/10/13 04:17:39;;;;;;;12.40;6.45;;;;;;;;;;5051840;28;20041;-77
2021/10/13 04:20:09;;;;;;;14.10;6.97;;;;;;;;;;5052122;28;20060;-78
2021/10/13 04:22:36;;;;;;;12.85;6.68;;;;;;;;;;5052238;28;20049;-77
2021/10/13 04:25:03;;;;;;;14.65;6.70;;;;;;;;;;5052562;28;20103;-77
2021/10/13 04:27:30;;;;;;;13.50;6.75;;;;;;;;;;5052390;28;20056;-77
2021/10/13 04:29:56;;;;;;;12.32;6.20;;;;;;;;;;5052570;28;20107;-78
2021/10/13 04:32:25;;;;;;;14.45;7.22;;;;;;;;;;5052351;28;20049;-77
2021/10/13 04:34:51;;;;;;;15.90;7.88;;;;;;;;;;5052068;28;20148;-77
2021/10/13 04:37:20;;;;;;;16.58;7.15;;;;;;;;;;5051511;28;20504;-77
2021/10/13 04:39:46;;;;;;;14.15;7.05;;;;;;;;;;5052236;28;20044;-77
2021/10/13 04:42:13;;;;;;;14.65;6.25;;;;;;;;;;5053322;28;20048;-78
2021/10/13 04:44:40;;;;;;;16.40;7.63;;;;;;;;;;5051746;28;20071;-78
2021/10/13 04:47:07;;;;;;;16.70;8.18;;;;;;;;;;5051841;28;20455;-79
2021/10/13 04:49:36;;;;;;;15.38;8.23;;;;;;;;;;5052428;28;20462;-77
2021/10/13 04:52:03;;;;;;;19.08;7.75;;;;;;;;;;5052897;28;20404;-77
2021/10/13 04:54:29;;;;;;;14.88;8.15;;;;;;;;;;5053201;28;20200;-77
2021/10/13 04:56:56;;;;;;;13.82;7.45;;;;;;;;;;5063772;22;20053;-76
2021/10/13 04:59:23;;;;;;;13.55;6.95;;;;;;;;;;5052386;28;20057;-76
2021/10/13 05:01:50;;;;;;;17.40;8.10;;;;;;;;;;5052099;28;20114;-76
2021/10/13 05:04:17;;;;;;;14.73;7.97;;;;;;;;;;5052854;28;20099;-77
2021/10/13 05:06:45;;;;;;;14.55;7.63;;;;;;;;;;5052140;28;20467;-77
2021/10/13 05:09:12;;;;;;;15.30;7.05;;;;;;;;;;5053511;28;20110;-77
2021/10/13 05:11:39;;;;;;;13.77;7.00;;;;;;;;;;5053379;28;20090;-77
2021/10/13 05:14:06;;;;;;;15.25;7.40;;;;;;;;;;5054005;28;20128;-77
2021/10/13 05:16:33;;;;;;;17.15;8.02;;;;;;;;;;5053000;28;20049;-77
2021/10/13 05:19:00;;;;;;;13.77;7.05;;;;;;;;;;5056703;28;20059;-77
2021/10/13 05:21:27;;;;;;;14.82;7.85;;;;;;;;;;5057487;28;20064;-77
2021/10/13 05:23:55;;;;;;;13.43;7.43;;;;;;;;;;5058772;28;20048;-77
2021/10/13 05:26:22;;;;;;;15.57;7.65;;;;;;;;;;5074650;28;20057;-76
2021/10/13 05:28:49;;;;;;;17.20;7.78;;;;;;;;;;5077410;28;20055;-77
2021/10/13 05:31:16;;;;;;;15.15;7.15;;;;;;;;;;5078663;28;20063;-77
2021/10/13 05:33:43;;;;;;;15.90;7.43;;;;;;;;;;5078829;28;20171;-76
2021/10/13 05:36:10;;;;;;;14.77;7.70;;;;;;;;;;5078997;28;20099;-77
2021/10/13 05:38:36;;;;;;;16.52;8.02;;;;;;;;;;5077794;28;20080;-76
2021/10/13 05:41:05;;;;;;;17.88;8.52;;;;;;;;;;5075687;28;20052;-76
2021/10/13 05:43:31;;;;;;;17.45;8.30;;;;;;;;;;5078318;28;20053;-76
2021/10/13 05:45:58;;;;;;;18.17;8.65;;;;;;;;;;5077924;28;20041;-76
2021/10/13 05:48:25;;;;;;;17.30;8.38;;;;;;;;;;5078986;28;20045;-77
2021/10/13 05:50:53;;;;;;;21.00;8.93;;;;;;;;;;5079553;28;20063;-76
2021/10/13 05:53:20;;;;;;;23.65;8.02;;;;;;;;;;5079407;28;20041;-77
2021/10/13 05:55:47;;;;;;;18.30;8.93;;;;;;;;;;5083539;28;20043;-76
2021/10/13 05:58:17;;;;;;;18.85;9.60;;;;;;;;;;5098902;28;20041;-77
2021/10/13 06:00:45;;;;;;;21.58;9.75;;;;;;;;;;5098918;28;20052;-76
2021/10/13 06:03:11;;;;;;;27.13;11.65;;;;;;;;;;5095241;28;20048;-76
2021/10/13 06:05:39;;;;;;;20.08;10.13;;;;;;;;;;5077765;28;20466;-76
2021/10/13 06:08:06;;;;;;;25.08;10.05;;;;;;;;;;5077190;28;20056;-77
2021/10/13 06:10:33;;;;;;;20.17;9.48;;;;;;;;;;5077915;28;20146;-77
2021/10/13 06:13:00;;;;;;;20.60;8.88;;;;;;;;;;5077838;28;20482;-78
2021/10/13 06:15:34;;;;;;;23.20;9.65;;;;;;;;;;5077803;28;20517;-77
2021/10/13 06:18:01;;;;;;;24.27;11.00;;;;;;;;;;5077420;28;20054;-78
2021/10/13 06:20:28;;;;;;;26.15;11.48;;;;;;;;;;5077162;28;20048;-78
2021/10/13 06:22:55;;;;;;;25.80;11.75;;;;;;;;;;5076761;28;20045;-78
2021/10/13 06:25:22;;;;;;;24.90;11.27;;;;;;;;;;5078044;28;20126;-78
2021/10/13 06:27:49;;;;;;;24.83;12.05;;;;;;;;;;5077708;28;20106;-78
2021/10/13 06:30:16;;;;;;;26.75;11.77;;;;;;;;;;5077664;28;20044;-78
2021/10/13 06:32:44;;;;;;;27.17;12.55;;;;;;;;;;5077661;28;20076;-78
2021/10/13 06:35:12;;;;;;;24.27;11.85;;;;;;;;;;5077732;28;20117;-77
2021/10/13 06:37:38;;;;;;;27.35;12.07;;;;;;;;;;5077167;28;20045;-78
2021/10/13 06:40:06;;;;;;;23.88;12.05;;;;;;;;;;5075234;28;20048;-77
2021/10/13 06:42:33;;;;;;;25.85;13.10;;;;;;;;;;5075140;28;20503;-77
2021/10/13 06:45:00;;;;;;;27.58;12.93;;;;;;;;;;5075638;28;20457;-77
2021/10/13 06:47:27;;;;;;;25.38;12.13;;;;;;;;;;5076187;28;20049;-77
2021/10/13 06:49:55;;;;;;;26.48;11.82;;;;;;;;;;5075991;28;20071;-77
2021/10/13 06:52:21;;;;;;;26.42;12.73;;;;;;;;;;5075776;28;20045;-77
2021/10/13 06:54:48;;;;;;;24.70;11.73;;;;;;;;;;5076410;28;20125;-77
2021/10/13 06:57:15;;;;;;;26.45;12.70;;;;;;;;;;5060639;28;20045;-77
2021/10/13 06:59:42;;;;;;;27.65;13.40;;;;;;;;;;5056255;28;20047;-77
2021/10/13 07:02:09;;;;;;;25.48;12.20;;;;;;;;;;5056295;28;20060;-77
2021/10/13 07:04:35;;;;;;;43.08;19.50;;;;;;;;;;5055703;28;20057;-77
2021/10/13 07:07:04;;;;;;;25.90;12.73;;;;;;;;;;5057051;28;20049;-78
2021/10/13 07:09:31;;;;;;;28.70;12.30;;;;;;;;;;5057742;28;20462;-78
2021/10/13 07:11:57;;;;;;;22.00;12.57;;;;;;;;;;5057757;28;20053;-78
2021/10/13 07:14:24;;;;;;;24.88;12.80;;;;;;;;;;5057014;28;20057;-78
2021/10/13 07:16:51;;;;;;;25.05;12.45;;;;;;;;;;5056422;28;20483;-77
2021/10/13 07:19:18;;;;;;;29.50;12.75;;;;;;;;;;5054898;28;20519;-78
2021/10/13 07:21:45;;;;;;;26.35;13.30;;;;;;;;;;5055272;28;20466;-78
2021/10/13 07:24:14;;;;;;;26.92;12.52;;;;;;;;;;5055055;28;20059;-78
2021/10/13 07:26:44;;;;;;;23.50;12.48;;;;;;;;;;5055222;28;20045;-78
2021/10/13 07:29:11;;;;;;;25.65;12.55;;;;;;;;;;5055844;28;20045;-78
2021/10/13 07:31:38;;;;;;;25.38;12.32;;;;;;;;;;5057575;28;20504;-79
2021/10/13 07:34:04;;;;;;;24.42;12.68;;;;;;;;;;5057930;28;20068;-79
2021/10/13 07:36:34;;;;;;;32.00;14.43;;;;;;;;;;5055199;28;20151;-77
2021/10/13 07:39:01;;;;;;;27.80;13.32;;;;;;;;;;5056294;28;20041;-79
2021/10/13 07:41:30;;;;;;;27.50;12.50;;;;;;;;;;5055618;28;20423;-78
2021/10/13 07:43:59;;;;;;;26.80;13.57;;;;;;;;;;5055277;28;20064;-78
2021/10/13 07:46:28;;;;;;;31.60;17.42;;;;;;;;;;5055401;28;20081;-78
2021/10/13 07:48:55;;;;;;;20.08;11.65;;;;;;;;;;5055563;28;20102;-78
2021/10/13 07:51:22;;;;;;;32.40;17.67;;;;;;;;;;5055158;28;20045;-79
2021/10/13 07:53:49;;;;;;;23.92;13.73;;;;;;;;;;5055074;28;20040;-79
2021/10/13 07:56:16;;;;;;;28.23;15.15;;;;;;;;;;5062825;28;20048;-78
2021/10/13 07:58:44;;;;;;;28.20;12.90;;;;;;;;;;5074023;28;20044;-78
2021/10/13 08:01:11;;;;;;;24.38;14.07;;;;;;;;;;5074505;28;20048;-78
2021/10/13 08:03:39;;;;;;;22.23;11.75;;;;;;;;;;5077733;28;20053;-77
2021/10/13 08:06:07;;;;;;;19.83;10.98;;;;;;;;;;5077230;28;20044;-78
2021/10/13 08:08:34;;;;;;;19.80;11.10;;;;;;;;;;5074045;28;20045;-78
2021/10/13 08:11:01;;;;;;;32.97;17.88;;;;;;;;;;5073732;28;20499;-78
2021/10/13 08:13:28;;;;;;;22.52;11.93;;;;;;;;;;5073980;28;20048;-77
2021/10/13 08:15:56;;;;;;;21.92;10.50;;;;;;;;;;5073734;28;20084;-78
2021/10/13 08:18:23;;;;;;;24.45;11.52;;;;;;;;;;5073630;28;20049;-77
2021/10/13 08:20:50;;;;;;;15.68;9.45;;;;;;;;;;5073735;28;20052;-77
2021/10/13 08:23:19;;;;;;;17.73;9.65;;;;;;;;;;5073873;28;20071;-78
2021/10/13 08:25:46;;;;;;;16.17;8.27;;;;;;;;;;5073226;28;20098;-78
2021/10/13 08:28:12;;;;;;;16.73;8.18;;;;;;;;;;5073200;28;20048;-78
2021/10/13 08:30:40;;;;;;;16.08;8.18;;;;;;;;;;5074129;28;20040;-78
2021/10/13 08:33:08;;;;;;;18.05;9.27;;;;;;;;;;5075575;28;20045;-78
2021/10/13 08:35:35;;;;;;;15.43;8.48;;;;;;;;;;5075126;28;20071;-78
2021/10/13 08:38:02;;;;;;;19.85;10.35;;;;;;;;;;5089408;28;20044;-78
2021/10/13 08:40:29;;;;;;;20.95;11.20;;;;;;;;;;5096176;28;20045;-77
2021/10/13 08:43:01;;;;;;;19.13;10.07;;;;;;;;;;5096022;28;20060;-77
2021/10/13 08:45:29;;;;;;;21.63;10.63;;;;;;;;;;5088383;28;20052;-78
2021/10/13 08:47:57;;;;;;;24.50;12.27;;;;;;;;;;5082844;28;20045;-78
2021/10/13 08:50:27;;;;;;;17.73;9.55;;;;;;;;;;5080091;28;20049;-79
2021/10/13 08:52:54;;;;;;;17.50;8.88;;;;;;;;;;5081617;28;20113;-79
2021/10/13 08:55:28;;;;;;;17.55;8.02;;;;;;;;;;5084212;28;20045;-78
2021/10/13 08:58:08;;;;;;;14.48;7.25;;;;;;;;;;5084404;28;20049;-77
2021/10/13 09:00:35;;;;;;;13.68;7.72;;;;;;;;;;5079303;28;20086;-77
2021/10/13 09:03:02;;;;;;;13.60;6.95;;;;;;;;;;5080640;28;20436;-77
2021/10/13 09:05:31;;;;;;;9.80;5.97;;;;;;;;;;5084714;28;20067;-78
2021/10/13 09:07:58;;;;;;;12.35;6.22;;;;;;;;;;5083995;28;20528;-77
2021/10/13 09:10:31;;;;;;;12.68;6.78;;;;;;;;;;5082432;28;20068;-77
2021/10/13 09:12:58;;;;;;;13.45;6.13;;;;;;;;;;5078532;28;20051;-77
2021/10/13 09:15:28;;;;;;;13.45;5.93;;;;;;;;;;5078545;28;20084;-77
2021/10/13 09:17:57;;;;;;;11.32;5.88;;;;;;;;;;5079306;28;20102;-78
2021/10/13 09:20:26;;;;;;;9.60;5.45;;;;;;;;;;5078926;28;20045;-78
2021/10/13 09:23:18;;;;;;;8.40;4.80;;;;;;;;;;5080286;28;20044;-79
2021/10/13 09:26:01;;;;;;;11.27;5.90;;;;;;;;;;5081289;28;20084;-79
2021/10/13 09:28:28;;;;;;;11.95;6.47;;;;;;;;;;5080826;28;20048;-79
2021/10/13 09:30:55;;;;;;;17.42;7.82;;;;;;;;;;5080291;28;20044;-78
2021/10/13 09:33:22;;;;;;;13.93;7.25;;;;;;;;;;5079744;28;20040;-78
2021/10/13 09:35:50;;;;;;;16.63;7.75;;;;;;;;;;5079001;28;20049;-79
2021/10/13 09:38:21;;;;;;;14.02;7.38;;;;;;;;;;5079383;28;20458;-78
2021/10/13 09:40:58;;;;;;;16.35;8.65;;;;;;;;;;5078813;28;20053;-77
2021/10/13 09:43:33;;;;;;;17.50;7.88;;;;;;;;;;5079357;28;20049;-78
2021/10/13 09:46:03;;;;;;;16.70;7.60;;;;;;;;;;5079110;28;20059;-77
2021/10/13 09:48:30;;;;;;;13.55;7.28;;;;;;;;;;5079655;28;20067;-78
2021/10/13 09:50:57;;;;;;;13.25;7.38;;;;;;;;;;5080053;28;20280;-79
2021/10/13 09:53:36;;;;;;;17.98;8.05;;;;;;;;;;5081489;28;20048;-80
2021/10/13 09:56:03;;;;;;;17.98;8.48;;;;;;;;;;5074449;28;20041;-78
2021/10/13 09:58:31;;;;;;;13.63;6.57;;;;;;;;;;5060903;28;20093;-77
2021/10/13 10:01:09;;;;;;;13.55;7.20;;;;;;;;;;5058463;28;20047;-78
2021/10/13 10:03:38;;;;;;;16.50;7.97;;;;;;;;;;5060308;28;20587;-78
2021/10/13 10:06:06;;;;;;;11.80;5.80;;;;;;;;;;5060135;28;20106;-78
2021/10/13 10:09:04;;;;;;;13.88;5.82;;;;;;;;;;5057587;28;20048;-78
2021/10/13 10:11:32;;;;;;;10.88;5.88;;;;;;;;;;5056774;28;20084;-78
2021/10/13 10:13:59;;;;;;;13.55;6.80;;;;;;;;;;5057243;28;20128;-79
2021/10/13 10:16:31;;;;;;;14.65;6.35;;;;;;;;;;5056303;28;20057;-79
2021/10/13 10:19:21;;;;;;;12.55;6.50;;;;;;;;;;5057943;28;20052;-79
2021/10/13 10:21:55;;;;;;;13.05;6.88;;;;;;;;;;5057910;28;20056;-79
2021/10/13 10:24:32;;;;;;;14.30;6.30;;;;;;;;;;5058647;28;20057;-79
2021/10/13 10:27:31;;;;;;;13.38;6.22;;;;;;;;;;5056737;28;20049;-78
2021/10/13 10:30:16;;;;;;;15.50;9.88;;;;;;;;;;5057462;28;20538;-78
2021/10/13 10:32:46;;;;;;;13.13;6.38;;;;;;;;;;5056921;28;20045;-78
2021/10/13 10:35:15;;;;;;;11.52;6.32;;;;;;;;;;5055814;28;20053;-77
2021/10/13 10:37:44;;;;;;;10.80;5.43;;;;;;;;;;5064335;28;20053;-77
2021/10/13 10:40:15;;;;;;;11.93;6.00;;;;;;;;;;5059210;28;20051;-79
2021/10/13 10:42:54;;;;;;;13.93;7.00;;;;;;;;;;5057398;28;20049;-78
2021/10/13 10:45:23;;;;;;;13.18;6.20;;;;;;;;;;5057101;28;20113;-79
2021/10/13 10:47:53;;;;;;;12.20;6.28;;;;;;;;;;5055764;28;20045;-77
2021/10/13 10:50:35;;;;;;;10.88;5.57;;;;;;;;;;5056791;28;20505;-78
2021/10/13 10:53:20;;;;;;;11.07;5.95;;;;;;;;;;5056680;28;20480;-78
2021/10/13 10:55:50;;;;;;;14.75;7.50;;;;;;;;;;5070204;22;20045;-76
2021/10/13 10:58:20;;;;;;;22.63;12.05;;;;;;;;;;5056331;28;20063;-76
2021/10/13 11:00:57;;;;;;;15.80;9.10;;;;;;;;;;5055996;28;20061;-77
2021/10/13 11:03:26;;;;;;;13.00;7.32;;;;;;;;;;5054926;28;20110;-77
2021/10/13 11:05:55;;;;;;;14.60;6.47;;;;;;;;;;5052001;28;20109;-78
2021/10/13 11:08:22;;;;;;;11.13;6.40;;;;;;;;;;5036530;28;20053;-78
2021/10/13 11:10:50;;;;;;;12.82;6.65;;;;;;;;;;5034683;28;20602;-77
2021/10/13 11:13:24;;;;;;;12.95;6.97;;;;;;;;;;5033176;28;20045;-76
2021/10/13 11:15:50;;;;;;;14.50;6.40;;;;;;;;;;5032521;28;20052;-78
2021/10/13 11:18:18;;;;;;;12.20;5.90;;;;;;;;;;5033449;28;20041;-77
2021/10/13 11:20:46;;;;;;;11.43;5.93;;;;;;;;;;5033721;28;20061;-77
2021/10/13 11:23:16;;;;;;;10.15;5.65;;;;;;;;;;5034039;28;20050;-78
2021/10/13 11:25:43;;;;;;;10.65;5.85;;;;;;;;;;5033278;28;20200;-76
2021/10/13 11:28:13;;;;;;;14.02;6.00;;;;;;;;;;5032346;28;20060;-77
2021/10/13 11:30:41;;;;;;;9.88;5.97;;;;;;;;;;5033274;28;20049;-77
2021/10/13 11:33:09;;;;;;;11.77;6.25;;;;;;;;;;5032888;28;20049;-77
2021/10/13 11:35:37;;;;;;;12.15;6.45;;;;;;;;;;5033994;28;20049;-78
2021/10/13 11:38:06;;;;;;;12.45;6.03;;;;;;;;;;5033344;28;20046;-78
2021/10/13 11:40:33;;;;;;;16.48;7.40;;;;;;;;;;5033038;28;20052;-78
2021/10/13 11:43:08;;;;;;;17.80;7.47;;;;;;;;;;5033279;28;20046;-77
2021/10/13 11:45:37;;;;;;;21.17;10.43;;;;;;;;;;5032690;28;20053;-78
2021/10/13 11:48:05;;;;;;;19.95;11.18;;;;;;;;;;5033949;28;20107;-77
2021/10/13 11:50:33;;;;;;;10.88;5.82;;;;;;;;;;5032368;28;20518;-77
2021/10/13 11:53:01;;;;;;;9.82;4.88;;;;;;;;;;5032991;28;20107;-77
2021/10/13 11:55:33;;;;;;;11.65;5.80;;;;;;;;;;5032803;28;20423;-78
2021/10/13 11:58:03;;;;;;;11.20;6.68;;;;;;;;;;5032693;28;20076;-77
2021/10/13 12:00:32;;;;;;;4.97;3.30;;;;;;;;;;5033141;28;20068;-78
2021/10/13 12:03:03;;;;;;;9.30;4.30;;;;;;;;;;5033092;28;20053;-77
2021/10/13 12:05:37;;;;;;;10.75;3.55;;;;;;;;;;5032915;28;20049;-77
2021/10/13 12:08:08;;;;;;;8.73;4.78;;;;;;;;;;5033797;28;20076;-77
2021/10/13 12:10:38;;;;;;;8.27;4.35;;;;;;;;;;5033236;28;20077;-79
2021/10/13 12:13:06;;;;;;;6.40;2.95;;;;;;;;;;5032818;28;20049;-77
2021/10/13 12:15:33;;;;;;;6.90;3.97;;;;;;;;;;5033753;28;20119;-77
2021/10/13 12:18:15;;;;;;;7.20;3.00;;;;;;;;;;5033289;28;20747;-77
2021/10/13 12:20:43;;;;;;;7.50;3.40;;;;;;;;;;5033745;28;20059;-78
2021/10/13 12:23:11;;;;;;;6.15;3.17;;;;;;;;;;5034599;28;20049;-77
2021/10/13 12:25:38;;;;;;;7.28;3.85;;;;;;;;;;5035753;28;20073;-78
2021/10/13 12:28:20;;;;;;;7.38;3.60;;;;;;;;;;5034971;28;20075;-76
2021/10/13 12:30:48;;;;;;;5.95;3.40;;;;;;;;;;5033053;28;20610;-78
2021/10/13 12:33:19;;;;;;;8.43;4.20;;;;;;;;;;5032288;28;20045;-77
2021/10/13 12:35:46;;;;;;;;;;;;;;;;;;5032820;28;20511;-76
2021/10/13 12:38:15;;;;;;;8.90;4.45;;;;;;;;;;5032724;28;19921;-81
2021/10/13 12:41:00;;;;;;;17.58;7.20;;;;;;;;;;5033209;28;20046;-76
2021/10/13 12:43:28;;;;;;;11.98;5.18;;;;;;;;;;5032277;28;20128;-77
2021/10/13 12:45:54;;;;;;;10.80;4.47;;;;;;;;;;5032475;28;20045;-77
2021/10/13 12:48:23;;;;;;;13.13;6.85;;;;;;;;;;5032316;28;20443;-77
2021/10/13 12:51:04;;;;;;;10.48;4.93;;;;;;;;;;5033123;28;20076;-76
2021/10/13 12:53:31;;;;;;;12.00;4.32;;;;;;;;;;5032252;28;20045;-77
2021/10/13 12:55:58;;;;;;;8.57;4.13;;;;;;;;;;5027778;28;20460;-77
2021/10/13 12:58:26;;;;;;;11.52;5.68;;;;;;;;;;5014543;28;20104;-77
2021/10/13 13:00:53;;;;;;;9.48;4.60;;;;;;;;;;5015596;28;20048;-77
2021/10/13 13:03:21;;;;;;;8.98;4.60;;;;;;;;;;5014969;28;20671;-77
2021/10/13 13:05:50;;;;;;;10.52;5.03;;;;;;;;;;5015493;28;20057;-78
2021/10/13 13:08:17;;;;;;;11.30;5.22;;;;;;;;;;5014526;28;20088;-76
2021/10/13 13:10:44;;;;;;;15.13;7.32;;;;;;;;;;5013729;28;20050;-77
2021/10/13 13:13:11;;;;;;;13.90;7.28;;;;;;;;;;5013415;28;20528;-77
2021/10/13 13:15:38;;;;;;;10.43;5.35;;;;;;;;;;5012811;28;20049;-76
2021/10/13 13:18:06;;;;;;;10.43;4.93;;;;;;;;;;5011602;28;20050;-77
2021/10/13 13:20:33;;;;;;;7.90;3.47;;;;;;;;;;5011968;28;20054;-77
2021/10/13 13:23:02;;;;;;;8.55;2.90;;;;;;;;;;5012483;28;20050;-78
2021/10/13 13:25:29;;;;;;;4.90;2.17;;;;;;;;;;5013039;28;20050;-78
2021/10/13 13:27:57;;;;;;;6.45;2.10;;;;;;;;;;5012695;28;20050;-78
2021/10/13 13:30:25;;;;;;;5.18;2.15;;;;;;;;;;5013664;28;20046;-78
2021/10/13 13:32:54;;;;;;;7.60;2.10;;;;;;;;;;5013767;28;20104;-78
2021/10/13 13:35:21;;;;;;;10.90;3.20;;;;;;;;;;5013611;28;20092;-77
2021/10/13 13:37:47;;;;;;;6.97;2.63;;;;;;;;;;5012366;28;20045;-76
2021/10/13 13:40:16;;;;;;;7.00;3.90;;;;;;;;;;5015522;28;20042;-76
2021/10/13 13:42:44;;;;;;;7.55;2.47;;;;;;;;;;5015782;28;20046;-77
2021/10/13 13:45:11;;;;;;;6.25;3.15;;;;;;;;;;5016091;28;20060;-77
2021/10/13 13:47:38;;;;;;;6.03;2.97;;;;;;;;;;5017073;28;20073;-77
2021/10/13 13:50:06;;;;;;;4.57;2.25;;;;;;;;;;5022197;28;20049;-77
2021/10/13 13:52:33;;;;;;;7.38;2.25;;;;;;;;;;5017225;28;20073;-77
2021/10/13 13:55:00;;;;;;;5.57;1.98;;;;;;;;;;5016308;28;20054;-77
2021/10/13 13:57:28;;;;;;;5.93;2.20;;;;;;;;;;5015480;28;20045;-78
2021/10/13 13:59:55;;;;;;;5.30;2.50;;;;;;;;;;5015881;28;20054;-77
2021/10/13 14:02:22;;;;;;;6.93;3.20;;;;;;;;;;5016337;28;20060;-77
2021/10/13 14:04:48;;;;;;;6.93;2.78;;;;;;;;;;5015481;28;20574;-77
2021/10/13 14:07:15;;;;;;;7.28;2.95;;;;;;;;;;5015022;28;20046;-76
2021/10/13 14:09:42;;;;;;;10.65;3.88;;;;;;;;;;5024775;28;20038;-77
2021/10/13 14:12:09;;;;;;;8.55;4.15;;;;;;;;;;5038219;28;20108;-76
2021/10/13 14:14:37;;;;;;;6.55;3.92;;;;;;;;;;5038729;28;20081;-77
2021/10/13 14:17:04;;;;;;;9.82;3.92;;;;;;;;;;5035199;28;20085;-76
2021/10/13 14:19:31;;;;;;;12.10;4.65;;;;;;;;;;5018347;28;20069;-77
2021/10/13 14:21:58;;;;;;;13.70;6.32;;;;;;;;;;5016536;28;20108;-77
2021/10/13 14:24:24;;;;;;;9.30;4.88;;;;;;;;;;5016254;28;20050;-76
2021/10/13 14:26:52;;;;;;;8.10;3.60;;;;;;;;;;5015645;28;20149;-76
2021/10/13 14:29:19;;;;;;;5.70;2.03;;;;;;;;;;5016100;28;20572;-77
2021/10/13 14:31:48;;;;;;;5.10;2.00;;;;;;;;;;5016077;28;20520;-77
2021/10/13 14:34:21;;;;;;;5.18;1.85;;;;;;;;;;5016256;28;20050;-78
2021/10/13 14:36:49;;;;;;;6.80;1.70;;;;;;;;;;5017522;28;20050;-76
2021/10/13 14:39:19;;;;;;;4.72;1.75;;;;;;;;;;5015453;28;20096;-78
2021/10/13 14:41:46;;;;;;;3.63;1.58;;;;;;;;;;5019159;28;20072;-77